logo
Rechercher aéroport 
image banner adimage banner adimage banner ad
image banner ad

EPJD - Romkowo

Situé à , Poland

ICAO - , IATA -

Données fournies par Airmate  

Information générale

Coordonnées: N50°36'46" E19°17'50"
Élévation : 1023 feet MSL.
 
Voir autres Aéroports à Silesia

Données opérationnelles

Special qualification required
Heure actuelle UTC:
Heure actuelle locale:
Météo à : EPKT - Katowice - Pyrzowice ( 22 km )
METAR: EPKT 231800Z 12006KT 9000 FEW023 BKN030 07/07 Q1002
TAF: TAF EPKT 231730Z 2318/2418 16010KT 9999 BKN033 PROB30 TEMPO 2318/2405 -RA BKN013 OVC026 BECMG 2405/2408 26010KT TEMPO 2405/2410 4000 SHRA BKN008 BKN016CB BECMG 2414/2417 15005KT
Voir NOTAMs / SUP AIP / TFR affectant cet aéroport [VIEW]
Fréquences de communication: [VIEW]

Pistes:

Coordonnées de l'aéroport

Adresse: Poland

Vue satellite de EPJD